createdAt,value
2018-09-09T00:02:38.703Z,6.80
2018-09-09T00:18:14.328Z,7.60
2018-09-09T00:21:04.715Z,6.90
2018-09-09T00:30:26.600Z,7.53
2018-09-09T00:38:50.650Z,6.50
2018-09-09T00:47:58.632Z,6.97
2018-09-09T00:56:59.650Z,7.10
2018-09-09T01:01:14.364Z,9.17
2018-09-09T01:04:05.970Z,6.73
2018-09-09T01:06:58.300Z,6.17
2018-09-09T01:09:40.686Z,7.33
2018-09-09T01:29:27.132Z,7.73
2018-09-09T01:37:43.120Z,7.17
2018-09-09T01:43:40.617Z,6.73
2018-09-09T01:46:15.212Z,6.27
2018-09-09T01:48:50.462Z,6.60
2018-09-09T01:51:31.746Z,6.20
2018-09-09T01:54:06.979Z,6.30
2018-09-09T01:56:42.034Z,7.13
2018-09-09T01:59:16.501Z,6.07
2018-09-09T02:02:01.902Z,6.30
2018-09-09T02:04:56.302Z,6.30
2018-09-09T02:12:02.150Z,7.27
2018-09-09T02:17:17.662Z,7.10
2018-09-09T02:19:51.704Z,6.33
2018-09-09T02:25:54.359Z,5.30
2018-09-09T02:28:35.049Z,5.57
2018-09-09T02:33:59.361Z,5.83
2018-09-09T02:36:34.710Z,5.80
2018-09-09T02:39:14.102Z,5.70
2018-09-09T02:41:49.305Z,6.13
2018-09-09T02:44:23.314Z,6.07
2018-09-09T02:47:06.896Z,5.43
2018-09-09T02:49:44.669Z,5.70
2018-09-09T02:52:25.292Z,6.67
2018-09-09T02:54:59.346Z,6.03
2018-09-09T02:57:33.993Z,5.70
2018-09-09T03:00:31.145Z,6.70
2018-09-09T03:03:16.708Z,6.07
2018-09-09T03:05:53.052Z,5.87
2018-09-09T03:11:31.051Z,9.67
2018-09-09T03:14:16.284Z,5.83
2018-09-09T03:16:50.695Z,6.97
2018-09-09T03:19:28.885Z,6.53
2018-09-09T03:22:10.436Z,7.53
2018-09-09T03:24:44.551Z,8.37
2018-09-09T03:27:25.554Z,6.83
2018-09-09T03:30:02.227Z,6.40
2018-09-09T03:32:43.248Z,6.20
2018-09-09T03:35:22.200Z,7.50
2018-09-09T03:37:56.160Z,5.67
2018-09-09T03:40:30.528Z,5.40
2018-09-09T03:43:04.728Z,6.53
2018-09-09T03:45:41.600Z,6.30
2018-09-09T03:48:26.529Z,5.83
2018-09-09T03:53:57.138Z,7.07
2018-09-09T03:56:34.293Z,7.00
2018-09-09T03:59:19.817Z,5.50
2018-09-09T04:01:57.106Z,5.10
2018-09-09T04:04:34.872Z,6.87
2018-09-09T04:07:09.916Z,7.00
2018-09-09T04:09:44.476Z,5.43
2018-09-09T04:12:18.409Z,5.00
2018-09-09T04:14:53.535Z,6.33
2018-09-09T04:17:28.601Z,4.77
2018-09-09T04:20:02.976Z,5.00
2018-09-09T04:22:43.571Z,5.13
2018-09-09T04:25:18.307Z,6.50
2018-09-09T04:27:54.517Z,4.90
2018-09-09T04:30:28.375Z,6.10
2018-09-09T04:35:46.251Z,5.17
2018-09-09T04:38:21.428Z,5.80
2018-09-09T04:40:55.466Z,4.40
2018-09-09T04:43:36.199Z,4.73
2018-09-09T04:46:14.231Z,4.83
2018-09-09T04:48:48.373Z,4.27
2018-09-09T04:51:22.434Z,5.10
2018-09-09T04:53:56.502Z,4.30
2018-09-09T04:56:32.643Z,4.03
2018-09-09T04:59:11.462Z,4.40
2018-09-09T05:01:45.783Z,5.60
2018-09-09T05:04:22.760Z,4.00
2018-09-09T05:06:56.842Z,5.00
2018-09-09T05:09:31.460Z,4.83
2018-09-09T05:12:10.715Z,4.20
2018-09-09T05:14:51.356Z,4.87
2018-09-09T05:17:30.530Z,4.93
2018-09-09T05:20:51.626Z,4.00
2018-09-09T05:23:31.720Z,3.70
2018-09-09T05:29:16.604Z,4.20
2018-09-09T05:40:53.347Z,3.73
2018-09-09T05:43:39.794Z,6.80
2018-09-09T05:47:19.089Z,4.33
2018-09-09T05:55:49.786Z,5.50
2018-09-09T05:58:41.998Z,5.70
2018-09-09T06:09:11.784Z,5.10
2018-09-09T06:12:00.215Z,3.43
2018-09-09T06:53:23.591Z,3.63
2018-09-09T06:56:00.946Z,4.13
2018-09-09T06:58:35.149Z,2.87
2018-09-09T07:01:14.129Z,2.03
2018-09-09T07:03:58.017Z,2.73
2018-09-09T07:06:32.125Z,3.40
2018-09-09T07:09:06.960Z,4.50
2018-09-09T07:11:41.286Z,2.97
2018-09-09T07:14:15.084Z,2.57
2018-09-09T07:16:55.795Z,2.07
2018-09-09T07:19:29.732Z,3.80
2018-09-09T07:22:03.533Z,2.73
2018-09-09T07:24:37.474Z,1.87
2018-09-09T07:27:12.136Z,4.07
2018-09-09T07:29:47.357Z,2.83
2018-09-09T07:32:21.277Z,2.73
2018-09-09T07:34:55.089Z,3.83
2018-09-09T07:37:29.133Z,2.40
2018-09-09T07:40:02.976Z,2.93
2018-09-09T07:42:37.055Z,3.13
2018-09-09T07:45:11.085Z,2.50
2018-09-09T07:47:44.816Z,2.40
2018-09-09T07:50:19.412Z,1.57
2018-09-09T07:52:53.400Z,2.60
2018-09-09T07:55:27.290Z,1.97
2018-09-09T07:58:01.222Z,1.97
2018-09-09T08:00:35.558Z,3.60
2018-09-09T08:03:09.446Z,2.20
2018-09-09T08:05:43.318Z,3.77
2018-09-09T08:08:17.229Z,3.30
2018-09-09T08:10:51.276Z,2.40
2018-09-09T08:13:25.372Z,1.43
2018-09-09T08:15:59.209Z,4.03
2018-09-09T08:18:33.409Z,2.47
2018-09-09T08:21:07.268Z,1.60
2018-09-09T08:23:41.267Z,3.47
2018-09-09T08:26:15.547Z,1.87
2018-09-09T08:28:49.351Z,4.27
2018-09-09T08:31:23.947Z,3.20
2018-09-09T08:33:57.713Z,4.70
2018-09-09T08:36:31.691Z,3.77
2018-09-09T08:39:08.692Z,2.97
2018-09-09T08:41:42.433Z,2.47
2018-09-09T08:44:16.521Z,3.00
2018-09-09T08:46:50.442Z,3.80
2018-09-09T08:49:24.185Z,2.33
2018-09-09T08:51:58.915Z,2.43
2018-09-09T08:54:32.721Z,2.53
2018-09-09T08:57:06.570Z,3.67
2018-09-09T08:59:40.505Z,4.10
2018-09-09T09:02:14.505Z,3.50
2018-09-09T09:04:48.608Z,4.23
2018-09-09T09:07:22.955Z,3.80
2018-09-09T09:09:56.825Z,2.60
2018-09-09T09:12:30.650Z,2.30
2018-09-09T09:15:04.850Z,2.87
2018-09-09T09:17:39.577Z,3.57
2018-09-09T09:20:13.502Z,3.47
2018-09-09T09:22:47.259Z,3.70
2018-09-09T09:25:21.422Z,3.47
2018-09-09T09:27:55.459Z,2.87
2018-09-09T09:30:29.172Z,3.43
2018-09-09T09:33:03.053Z,3.30
2018-09-09T09:35:42.152Z,2.80
2018-09-09T09:38:16.302Z,5.60
2018-09-09T09:40:50.813Z,3.13
2018-09-09T09:43:24.718Z,3.20
2018-09-09T09:45:58.663Z,3.77
2018-09-09T09:48:32.471Z,3.63
2018-09-09T09:51:06.376Z,2.83
2018-09-09T09:53:40.420Z,3.83
2018-09-09T09:56:15.528Z,3.13
2018-09-09T09:58:49.923Z,3.13
2018-09-09T10:01:24.190Z,3.20
2018-09-09T10:03:58.084Z,2.30
2018-09-09T10:06:31.939Z,5.07
2018-09-09T10:09:06.190Z,2.20
2018-09-09T10:11:39.964Z,4.33
2018-09-09T10:14:13.879Z,5.30
2018-09-09T10:16:47.786Z,3.03
2018-09-09T10:19:21.632Z,1.97
2018-09-09T10:21:55.437Z,2.87
2018-09-09T10:24:29.390Z,4.60
2018-09-09T10:27:03.309Z,3.63
2018-09-09T10:29:37.213Z,5.67
2018-09-09T10:32:11.081Z,2.50
2018-09-09T10:34:44.886Z,2.60
2018-09-09T10:37:18.717Z,4.20
2018-09-09T10:39:52.477Z,2.93
2018-09-09T10:42:26.602Z,1.97
2018-09-09T10:45:00.449Z,2.53
2018-09-09T10:47:34.410Z,2.87
2018-09-09T10:50:08.302Z,3.20
2018-09-09T10:52:42.199Z,4.63
2018-09-09T10:55:16.160Z,3.60
2018-09-09T10:57:50.063Z,2.93
2018-09-09T11:00:23.892Z,3.57
2018-09-09T11:02:57.743Z,6.60
2018-09-09T11:05:31.721Z,5.07
2018-09-09T11:08:05.473Z,2.97
2018-09-09T11:10:39.244Z,1.90
2018-09-09T11:13:13.158Z,4.20
2018-09-09T11:15:46.999Z,3.00
2018-09-09T11:18:21.080Z,5.30
2018-09-09T11:20:54.888Z,4.13
2018-09-09T11:23:28.767Z,2.90
2018-09-09T11:26:02.616Z,3.50
2018-09-09T11:28:36.709Z,3.97
2018-09-09T11:31:10.538Z,2.37
2018-09-09T11:33:44.458Z,4.70
2018-09-09T11:36:18.451Z,3.37
2018-09-09T11:38:52.210Z,2.40
2018-09-09T11:41:26.139Z,4.10
2018-09-09T11:43:59.870Z,2.10
2018-09-09T11:46:33.835Z,2.80
2018-09-09T11:49:07.541Z,5.17
2018-09-09T11:51:41.452Z,2.27
2018-09-09T11:54:15.369Z,3.77
2018-09-09T11:56:49.244Z,2.83
2018-09-09T11:59:23.026Z,3.20
2018-09-09T12:01:56.914Z,2.77
2018-09-09T12:04:30.687Z,2.63
2018-09-09T12:07:04.442Z,4.80
2018-09-09T12:09:38.344Z,5.43
2018-09-09T12:12:12.256Z,3.97
2018-09-09T12:14:46.189Z,3.27
2018-09-09T12:17:20.073Z,2.17
2018-09-09T12:19:54.038Z,5.03
2018-09-09T12:22:28.095Z,3.80
2018-09-09T12:25:01.823Z,5.27
2018-09-09T12:27:35.771Z,3.03
2018-09-09T12:30:09.617Z,5.33
2018-09-09T12:32:43.533Z,3.60
2018-09-09T12:35:17.454Z,4.47
2018-09-09T12:37:51.567Z,2.53
2018-09-09T12:40:25.656Z,3.13
2018-09-09T12:43:04.607Z,5.97
2018-09-09T12:45:43.535Z,5.20
2018-09-09T12:48:22.652Z,2.93
2018-09-09T12:50:56.470Z,3.87
2018-09-09T12:53:30.422Z,2.97
2018-09-09T12:56:04.375Z,6.93
2018-09-09T12:58:38.134Z,2.40
2018-09-09T13:01:12.063Z,3.03
2018-09-09T13:03:45.841Z,3.07
2018-09-09T13:06:19.818Z,4.47
2018-09-09T13:08:53.524Z,4.90
2018-09-09T13:11:27.348Z,3.50
2018-09-09T13:14:01.114Z,3.93
2018-09-09T13:16:35.083Z,3.00
2018-09-09T13:19:08.880Z,4.33
2018-09-09T13:21:42.628Z,3.10
2018-09-09T13:24:16.450Z,4.13
2018-09-09T13:26:50.333Z,3.77
2018-09-09T13:29:24.230Z,3.83
2018-09-09T13:31:58.078Z,3.67
2018-09-09T13:34:31.863Z,3.20
2018-09-09T13:37:05.844Z,3.17
2018-09-09T13:39:39.638Z,3.87
2018-09-09T13:42:13.547Z,3.87
2018-09-09T13:44:47.530Z,5.27
2018-09-09T13:47:21.411Z,3.33
2018-09-09T13:49:56.254Z,3.43
2018-09-09T13:52:31.474Z,3.77
2018-09-09T13:55:06.717Z,2.60
2018-09-09T13:57:40.441Z,4.47
2018-09-09T14:00:14.338Z,3.17
2018-09-09T14:02:48.238Z,3.47
2018-09-09T14:05:22.096Z,4.03
2018-09-09T14:07:56.013Z,4.63
2018-09-09T14:10:29.955Z,4.33
2018-09-09T14:13:03.746Z,3.10
2018-09-09T14:15:37.552Z,2.53
2018-09-09T14:18:11.434Z,3.67
2018-09-09T14:20:45.383Z,5.00
2018-09-09T14:23:19.277Z,4.60
2018-09-09T14:25:53.212Z,5.03
2018-09-09T14:28:26.991Z,5.27
2018-09-09T14:31:00.871Z,3.90
2018-09-09T14:33:34.780Z,3.67
2018-09-09T14:36:08.724Z,4.40
2018-09-09T14:38:42.425Z,5.07
2018-09-09T14:41:16.181Z,3.40
2018-09-09T14:43:50.121Z,2.70
2018-09-09T14:46:24.080Z,4.77
2018-09-09T14:48:57.895Z,5.13
2018-09-09T14:51:31.912Z,3.53
2018-09-09T14:54:06.712Z,4.57
2018-09-09T14:56:41.685Z,3.33
2018-09-09T14:59:16.335Z,2.13
2018-09-09T15:01:50.660Z,2.00
2018-09-09T15:04:25.383Z,3.37
2018-09-09T15:06:59.944Z,2.83
2018-09-09T15:09:33.999Z,1.77
2018-09-09T15:12:08.153Z,1.50
2018-09-09T15:14:42.130Z,2.43
2018-09-09T15:17:16.221Z,2.47
2018-09-09T15:19:50.190Z,4.17
2018-09-09T15:22:24.104Z,3.07
2018-09-09T15:24:57.861Z,4.30
2018-09-09T15:27:31.646Z,3.70
2018-09-09T15:30:05.486Z,1.13
2018-09-09T15:32:39.255Z,2.77
2018-09-09T15:35:13.365Z,3.40
2018-09-09T15:37:47.201Z,2.47
2018-09-09T15:40:21.111Z,2.50
2018-09-09T15:42:55.096Z,3.73
2018-09-09T15:45:29.013Z,3.37
2018-09-09T15:48:02.866Z,4.43
2018-09-09T15:50:36.838Z,2.70
2018-09-09T15:53:11.699Z,3.13
2018-09-09T15:55:45.564Z,1.77
2018-09-09T15:58:19.552Z,4.33
2018-09-09T16:00:53.992Z,5.70
2018-09-09T16:03:27.986Z,2.43
2018-09-09T16:06:01.958Z,3.40
2018-09-09T16:08:35.911Z,2.33
2018-09-09T16:11:09.922Z,2.83
2018-09-09T16:13:43.790Z,4.77
2018-09-09T16:16:17.571Z,2.63
2018-09-09T16:18:51.590Z,2.53
2018-09-09T16:21:25.503Z,4.10
2018-09-09T16:23:59.525Z,2.07
2018-09-09T16:26:33.536Z,2.67
2018-09-09T16:29:09.108Z,5.27
2018-09-09T16:31:43.012Z,2.00
2018-09-09T16:34:17.670Z,3.47
2018-09-09T16:36:51.632Z,3.00
2018-09-09T16:39:25.666Z,2.67
2018-09-09T16:41:59.428Z,5.13
2018-09-09T16:44:33.290Z,2.83
2018-09-09T16:47:07.473Z,2.23
2018-09-09T16:52:22.860Z,2.40
2018-09-09T16:54:56.743Z,5.23
2018-09-09T16:57:30.899Z,5.13
2018-09-09T17:00:04.960Z,3.03
2018-09-09T17:02:44.652Z,3.77
2018-09-09T17:05:18.523Z,4.23
2018-09-09T17:07:52.266Z,4.73
2018-09-09T17:10:28.271Z,4.33
2018-09-09T17:13:02.388Z,3.20
2018-09-09T17:15:36.457Z,3.83
2018-09-09T17:18:10.672Z,4.00
2018-09-09T17:20:44.394Z,4.07
2018-09-09T17:23:18.401Z,5.03
2018-09-09T17:25:52.376Z,4.00
2018-09-09T17:28:26.267Z,3.60
2018-09-09T17:31:00.678Z,3.87
2018-09-09T17:33:34.774Z,3.77
2018-09-09T17:36:09.871Z,4.03
2018-09-09T17:38:43.756Z,4.83
2018-09-09T17:41:17.954Z,3.33
2018-09-09T17:43:51.780Z,3.37
2018-09-09T17:46:26.190Z,3.83
2018-09-09T17:49:00.235Z,4.93
2018-09-09T17:51:34.265Z,5.33
2018-09-09T17:54:08.488Z,3.80
2018-09-09T17:56:42.385Z,4.50
2018-09-09T17:59:16.149Z,3.47
2018-09-09T18:01:50.727Z,3.27
2018-09-09T18:04:24.963Z,3.60
2018-09-09T18:06:59.010Z,6.30
2018-09-09T18:09:32.998Z,2.97
2018-09-09T18:12:07.048Z,4.47
2018-09-09T18:14:40.858Z,3.70
2018-09-09T18:17:14.896Z,4.57
2018-09-09T18:19:48.850Z,2.40
2018-09-09T18:22:22.823Z,3.67
2018-09-09T18:24:58.112Z,1.97
2018-09-09T18:27:32.317Z,5.60
2018-09-09T18:30:06.422Z,5.70
2018-09-09T18:32:40.407Z,2.83
2018-09-09T18:35:17.103Z,4.90
2018-09-09T18:37:51.008Z,4.37
2018-09-09T18:40:25.192Z,3.63
2018-09-09T18:42:59.318Z,2.57
2018-09-09T18:45:33.310Z,3.87
2018-09-09T18:48:07.694Z,5.73
2018-09-09T18:50:42.915Z,3.33
2018-09-09T18:53:17.026Z,4.30
2018-09-09T18:55:51.245Z,6.47
2018-09-09T18:58:25.841Z,6.43
2018-09-09T19:01:00.127Z,5.00
2018-09-09T19:03:34.015Z,3.50
2018-09-09T19:06:08.116Z,3.70
2018-09-09T19:08:42.058Z,3.67
2018-09-09T19:11:16.048Z,5.57
2018-09-09T19:13:50.047Z,5.70
2018-09-09T19:16:24.008Z,5.80
2018-09-09T19:18:57.935Z,6.37
2018-09-09T19:21:32.021Z,9.40
2018-09-09T19:24:05.901Z,5.10
2018-09-09T19:26:39.806Z,6.17
2018-09-09T19:29:13.609Z,4.73
2018-09-09T19:31:47.736Z,5.47
2018-09-09T19:34:22.069Z,4.67
2018-09-09T19:36:55.949Z,5.40
2018-09-09T19:39:29.929Z,7.87
2018-09-09T19:42:03.712Z,5.17
2018-09-09T19:44:37.721Z,7.67
2018-09-09T19:47:11.533Z,7.37
2018-09-09T19:49:45.550Z,5.97
2018-09-09T19:52:19.485Z,6.47
2018-09-09T19:54:53.719Z,7.33
2018-09-09T19:57:27.775Z,5.77
2018-09-09T20:00:01.563Z,5.03
2018-09-09T20:02:35.324Z,2.93
2018-09-09T20:05:09.306Z,5.73
2018-09-09T20:07:43.376Z,7.07
2018-09-09T20:10:17.554Z,5.00
2018-09-09T20:12:51.311Z,3.70
2018-09-09T20:15:25.246Z,6.60
2018-09-09T20:17:59.137Z,3.93
2018-09-09T20:20:33.402Z,6.67
2018-09-09T20:23:07.339Z,5.10
2018-09-09T20:25:41.274Z,4.50
2018-09-09T20:28:16.397Z,6.37
2018-09-09T20:30:50.335Z,6.97
2018-09-09T20:33:24.468Z,7.53
2018-09-09T20:35:58.505Z,5.70
2018-09-09T20:38:32.551Z,5.47
2018-09-09T20:41:06.469Z,4.70
2018-09-09T20:43:40.506Z,5.10
2018-09-09T20:46:14.501Z,7.67
2018-09-09T20:48:48.351Z,5.30
2018-09-09T20:51:22.202Z,4.83
2018-09-09T20:53:56.162Z,5.80
2018-09-09T20:56:30.154Z,4.13
2018-09-09T20:59:05.515Z,7.03
2018-09-09T21:01:39.653Z,7.40
2018-09-09T21:04:14.038Z,4.13
2018-09-09T21:06:47.944Z,7.30
2018-09-09T21:09:28.643Z,6.97
2018-09-09T21:12:05.698Z,5.73
2018-09-09T21:14:39.843Z,4.77
2018-09-09T21:17:16.223Z,4.17
2018-09-09T21:19:51.165Z,8.50
2018-09-09T21:22:25.418Z,5.07
2018-09-09T21:25:06.103Z,7.53
2018-09-09T21:30:24.977Z,6.57
2018-09-09T21:38:45.159Z,6.97
2018-09-09T21:44:02.055Z,8.10
2018-09-09T21:46:39.893Z,4.00
2018-09-09T21:50:49.290Z,5.10
2018-09-09T21:54:25.872Z,8.03
2018-09-09T21:57:03.920Z,9.30
2018-09-09T22:02:56.273Z,7.83
2018-09-09T22:05:33.333Z,5.50
2018-09-09T22:08:07.995Z,6.10
2018-09-09T22:10:46.714Z,3.53
2018-09-09T22:19:19.276Z,7.00
2018-09-09T22:21:56.394Z,3.93
2018-09-09T22:24:30.759Z,6.53
2018-09-09T22:27:04.878Z,6.67
2018-09-09T22:43:02.836Z,7.27
2018-09-09T22:45:37.354Z,8.40
2018-09-09T22:48:17.022Z,6.53
2018-09-09T22:50:55.742Z,6.30
2018-09-09T22:53:35.396Z,5.53
2018-09-09T22:56:14.939Z,6.13
2018-09-09T22:58:55.325Z,4.27
2018-09-09T23:04:20.997Z,6.37
2018-09-09T23:06:55.714Z,7.37
2018-09-09T23:09:41.776Z,4.30
2018-09-09T23:14:57.772Z,6.00
2018-09-09T23:17:32.128Z,6.43
2018-09-09T23:20:06.272Z,5.07
2018-09-09T23:22:40.439Z,6.43
2018-09-09T23:28:12.665Z,6.50
2018-09-09T23:30:50.958Z,4.50
2018-09-09T23:33:32.377Z,7.30
2018-09-09T23:36:07.570Z,6.63
2018-09-09T23:38:47.728Z,9.50
2018-09-09T23:41:24.902Z,4.97
2018-09-09T23:46:44.199Z,5.97
2018-09-09T23:57:07.733Z,8.10
2018-09-09T23:59:41.719Z,5.37
